Aérodrome :
LOGIN :

S'inscrire | Disclaimer

   EN    FR    IT 

 










Légende :    VFR   VFR Marginal   IFR   IFR Intensif   IFR Très Intensif
Visi : 
Plafond : 
>= 8 km
>= 3000ft
5 à 8 km
1000 à 3000 ft
1500m à 5 km
500 à 1000 ft
800 à 1500m
200 à 500 ft
< 800m
< 200 ft
Symboles :   Orages  Brouillard  Fortes neiges  Fortes précipitations  Vent > 20 kt
SIGMETs :   Divers  Orages  Givrage  Turbulence  Onde Orograph.  Cendres Volcan.






- Altitude de l'aérodrome : 396 ft


LFOZ - Orléans St Denis

DERNIER METAR :
  • 220030Z AUTO 12002KT 7000 NSC 04/03 Q1023

METARs EXPIRÉS :
  • 220000Z AUTO 00000KT 4300 1400 R23/1300U BR NSC 04/03 Q1023
  • 212330Z AUTO 00000KT 6000 NSC 05/04 Q1023
  • 212300Z AUTO 00000KT 5000 BR NSC 05/04 Q1023
  • 212230Z AUTO 00000KT 1300 R23/1300N BR NSC 05/04 Q1023
  • 212200Z AUTO 00000KT 1100 R23/1500D BR NSC 06/05 Q1023

TAF N/A



MET'MAP, la Météo Aéronautique d'un coup d'oeil ! - Copyright ORBIFLY Décembre 2007 - Disclaimer

ORBIFLY MET'MAP TEAM :

Programmation & Développement : Alexandra Zaïnal
Conception & Développement : Baudouin d'Aumeries
Co-Programmation & Développement : Marc-Olivier Méhu
Soutien technique & logistique : Manuel Goepfert

Contact : metmap@orbifly.com




SOURCES & CREDITS :

   NOAA